METAR Data
IDs: Format: Raw Decoded Include TAF

Data at: 0348 UTC 01 Feb 2023

LIMC 010320Z 01007KT CAVOK M01/M04 Q1020 NOSIG

LIME 010320Z AUTO 36004KT 9999 NCD 02/M04 Q1020

LIMF 010320Z VRB01KT CAVOK 01/M04 Q1020

No METAR found for LIMG

LIMJ 010320Z 08007KT 9999 BKN025 10/05 Q1022

LIML 010320Z VRB02KT CAVOK 02/M02 Q1020 NOSIG

No METAR found for LIMP

No METAR found for LIPA

LIPB 312150Z VRB02KT CAVOK M01/M07 Q1022

LIPC 010255Z 21005KT CAVOK 01/M02 Q1021 RMK SKC VIS MIN 9999 WIND THR11 21006KT WIND THR29 20004KT BLU

LIPH 010320Z AUTO 02005KT 7000 NCD 02/M02 Q1020

LIPI 010255Z 35006KT 9000 BKN020 M00/M03 Q1020 RMK BKN VIS MIN 9000 WIND THR06 02006KT WIND THR24 02005KT WHT

LIPK 312150Z 00000KT CAVOK 00/M03 Q1021

LIPL 010255Z 06002KT 2500 BR NSC M01/M02 Q1020 RMK SKC VIS MIN 2500 WIND THR31 06003KT WIND THR13 03004KT YLO

LIPO 010320Z AUTO 08002KT 9000 NCD 00/M02 Q1020

LIPQ 010320Z AUTO 04003KT 9999 BKN028/// 03/M00 Q1021

LIPR 010320Z AUTO 20004KT 9999 NCD M01/M03 Q1021

LIPZ 010320Z 02005KT 6000 FEW014 01/M02 Q1021 NOSIG

LIRP 010315Z 13003KT 9999 FEW035 02/02 Q1023 NOSIG

LFKB 010330Z AUTO 21006KT CAVOK 06/02 Q1023 NOSIG

LFKC 010330Z AUTO VRB02KT CAVOK 08/02 Q1022 NOSIG

LFKJ 010330Z AUTO 04006KT CAVOK 05/03 Q1024 NOSIG

LFLL 010330Z 00000KT 9999 FEW022 BKN040 03/01 Q1029 NOSIG

LFML 010330Z AUTO 30012KT CAVOK 06/01 Q1023 NOSIG

LFMN 010330Z 32011KT CAVOK 07/00 Q1022 NOSIG

LOWI 010320Z AUTO VRB01KT 9999 NCD M04/M05 Q1022

LOWL 010320Z AUTO 24010KT 9999 FEW022 BKN024 03/01 Q1020

LOWW 010320Z 29022KT CAVOK 05/M00 Q1017 NOSIG

LSGG 010320Z AUTO 25002KT 9000 NCD M02/M03 Q1028 NOSIG

LSZH 010320Z AUTO VRB02KT 9999 FEW024 01/M02 Q1026 NOSIG